sensor_id;sensor_type;location;lat;lon;timestamp;P1;durP1;ratioP1;P2;durP2;ratioP2
17369;SDS011;8802;52.402;4.920;2023-05-07T00:00:34;14.95;;;13.63;;
17369;SDS011;8802;52.402;4.920;2023-05-07T00:03:01;18.48;;;16.88;;
17369;SDS011;8802;52.402;4.920;2023-05-07T00:05:29;16.00;;;14.68;;
17369;SDS011;8802;52.402;4.920;2023-05-07T00:07:56;17.00;;;15.50;;
17369;SDS011;8802;52.402;4.920;2023-05-07T00:10:23;17.67;;;16.05;;
17369;SDS011;8802;52.402;4.920;2023-05-07T00:12:50;18.95;;;17.25;;
17369;SDS011;8802;52.402;4.920;2023-05-07T00:15:17;25.55;;;23.25;;
17369;SDS011;8802;52.402;4.920;2023-05-07T00:17:44;25.80;;;23.42;;
17369;SDS011;8802;52.402;4.920;2023-05-07T00:20:11;20.33;;;18.60;;
17369;SDS011;8802;52.402;4.920;2023-05-07T00:22:39;21.25;;;19.30;;
17369;SDS011;8802;52.402;4.920;2023-05-07T00:25:07;25.55;;;23.23;;
17369;SDS011;8802;52.402;4.920;2023-05-07T00:27:35;29.83;;;26.67;;
17369;SDS011;8802;52.402;4.920;2023-05-07T00:30:02;29.40;;;26.70;;
17369;SDS011;8802;52.402;4.920;2023-05-07T00:32:29;31.65;;;28.55;;
17369;SDS011;8802;52.402;4.920;2023-05-07T00:34:56;26.75;;;24.20;;
17369;SDS011;8802;52.402;4.920;2023-05-07T00:37:22;26.95;;;24.48;;
17369;SDS011;8802;52.402;4.920;2023-05-07T00:39:51;25.75;;;23.38;;
17369;SDS011;8802;52.402;4.920;2023-05-07T00:42:18;28.23;;;25.45;;
17369;SDS011;8802;52.402;4.920;2023-05-07T00:44:45;26.02;;;23.42;;
17369;SDS011;8802;52.402;4.920;2023-05-07T00:47:12;23.70;;;21.48;;
17369;SDS011;8802;52.402;4.920;2023-05-07T00:49:41;25.75;;;23.15;;
17369;SDS011;8802;52.402;4.920;2023-05-07T00:52:09;30.70;;;27.73;;
17369;SDS011;8802;52.402;4.920;2023-05-07T00:54:39;30.20;;;27.35;;
17369;SDS011;8802;52.402;4.920;2023-05-07T00:57:09;25.48;;;23.13;;
17369;SDS011;8802;52.402;4.920;2023-05-07T00:59:36;30.77;;;27.70;;
17369;SDS011;8802;52.402;4.920;2023-05-07T01:02:03;26.45;;;23.95;;
17369;SDS011;8802;52.402;4.920;2023-05-07T01:04:30;26.42;;;23.73;;
17369;SDS011;8802;52.402;4.920;2023-05-07T01:06:57;31.85;;;28.75;;
17369;SDS011;8802;52.402;4.920;2023-05-07T01:09:25;24.52;;;22.10;;
17369;SDS011;8802;52.402;4.920;2023-05-07T01:11:53;26.08;;;23.65;;
17369;SDS011;8802;52.402;4.920;2023-05-07T01:14:23;24.48;;;22.27;;
17369;SDS011;8802;52.402;4.920;2023-05-07T01:16:51;29.33;;;26.35;;
17369;SDS011;8802;52.402;4.920;2023-05-07T01:19:18;29.10;;;26.38;;
17369;SDS011;8802;52.402;4.920;2023-05-07T01:21:46;27.55;;;25.00;;
17369;SDS011;8802;52.402;4.920;2023-05-07T01:24:16;28.92;;;26.10;;
17369;SDS011;8802;52.402;4.920;2023-05-07T01:26:43;32.10;;;28.80;;
17369;SDS011;8802;52.402;4.920;2023-05-07T01:29:10;29.98;;;26.98;;
17369;SDS011;8802;52.402;4.920;2023-05-07T01:31:37;27.40;;;24.92;;
17369;SDS011;8802;52.402;4.920;2023-05-07T01:34:06;23.05;;;20.92;;
17369;SDS011;8802;52.402;4.920;2023-05-07T01:36:36;21.27;;;19.25;;
17369;SDS011;8802;52.402;4.920;2023-05-07T01:39:05;25.85;;;23.35;;
17369;SDS011;8802;52.402;4.920;2023-05-07T01:41:34;25.83;;;23.35;;
17369;SDS011;8802;52.402;4.920;2023-05-07T01:44:01;27.27;;;24.50;;
17369;SDS011;8802;52.402;4.920;2023-05-07T01:46:29;22.75;;;20.58;;
17369;SDS011;8802;52.402;4.920;2023-05-07T01:48:57;21.50;;;19.55;;
17369;SDS011;8802;52.402;4.920;2023-05-07T01:51:24;21.48;;;19.48;;
17369;SDS011;8802;52.402;4.920;2023-05-07T01:53:52;22.08;;;19.98;;
17369;SDS011;8802;52.402;4.920;2023-05-07T01:56:19;25.50;;;23.20;;
17369;SDS011;8802;52.402;4.920;2023-05-07T01:58:47;22.15;;;20.02;;
17369;SDS011;8802;52.402;4.920;2023-05-07T02:01:16;19.88;;;18.02;;
17369;SDS011;8802;52.402;4.920;2023-05-07T02:03:43;20.92;;;19.08;;
17369;SDS011;8802;52.402;4.920;2023-05-07T02:06:10;18.63;;;16.88;;
17369;SDS011;8802;52.402;4.920;2023-05-07T02:08:37;17.40;;;15.82;;
17369;SDS011;8802;52.402;4.920;2023-05-07T02:11:04;15.02;;;13.68;;
17369;SDS011;8802;52.402;4.920;2023-05-07T02:13:31;18.80;;;17.10;;
17369;SDS011;8802;52.402;4.920;2023-05-07T02:16:00;18.77;;;17.08;;
17369;SDS011;8802;52.402;4.920;2023-05-07T02:18:27;15.15;;;13.65;;
17369;SDS011;8802;52.402;4.920;2023-05-07T02:20:54;16.95;;;15.48;;
17369;SDS011;8802;52.402;4.920;2023-05-07T02:23:21;16.00;;;14.50;;
17369;SDS011;8802;52.402;4.920;2023-05-07T02:25:47;16.52;;;15.02;;
17369;SDS011;8802;52.402;4.920;2023-05-07T02:28:14;15.52;;;14.15;;
17369;SDS011;8802;52.402;4.920;2023-05-07T02:30:41;14.82;;;13.40;;
17369;SDS011;8802;52.402;4.920;2023-05-07T02:33:09;14.10;;;12.80;;
17369;SDS011;8802;52.402;4.920;2023-05-07T02:35:37;13.15;;;12.05;;
17369;SDS011;8802;52.402;4.920;2023-05-07T02:38:04;15.15;;;13.88;;
17369;SDS011;8802;52.402;4.920;2023-05-07T02:40:31;15.32;;;14.02;;
17369;SDS011;8802;52.402;4.920;2023-05-07T02:43:03;16.20;;;14.60;;
17369;SDS011;8802;52.402;4.920;2023-05-07T02:45:30;15.25;;;13.95;;
17369;SDS011;8802;52.402;4.920;2023-05-07T02:47:57;16.60;;;14.95;;
17369;SDS011;8802;52.402;4.920;2023-05-07T02:50:25;15.40;;;14.10;;
17369;SDS011;8802;52.402;4.920;2023-05-07T02:52:52;13.40;;;11.88;;
17369;SDS011;8802;52.402;4.920;2023-05-07T02:55:19;12.68;;;11.50;;
17369;SDS011;8802;52.402;4.920;2023-05-07T02:57:46;13.13;;;11.85;;
17369;SDS011;8802;52.402;4.920;2023-05-07T03:00:13;10.65;;;9.75;;
17369;SDS011;8802;52.402;4.920;2023-05-07T03:02:41;12.23;;;11.23;;
17369;SDS011;8802;52.402;4.920;2023-05-07T03:05:08;12.63;;;11.43;;
17369;SDS011;8802;52.402;4.920;2023-05-07T03:07:37;10.55;;;9.75;;
17369;SDS011;8802;52.402;4.920;2023-05-07T03:10:04;10.57;;;9.48;;
17369;SDS011;8802;52.402;4.920;2023-05-07T03:12:31;10.95;;;9.93;;
17369;SDS011;8802;52.402;4.920;2023-05-07T03:14:58;10.65;;;9.75;;
17369;SDS011;8802;52.402;4.920;2023-05-07T03:17:25;9.20;;;8.23;;
17369;SDS011;8802;52.402;4.920;2023-05-07T03:19:52;8.57;;;7.32;;
17369;SDS011;8802;52.402;4.920;2023-05-07T03:22:18;9.75;;;8.93;;
17369;SDS011;8802;52.402;4.920;2023-05-07T03:24:47;9.95;;;9.15;;
17369;SDS011;8802;52.402;4.920;2023-05-07T03:27:14;7.93;;;7.22;;
17369;SDS011;8802;52.402;4.920;2023-05-07T03:29:40;8.90;;;8.10;;
17369;SDS011;8802;52.402;4.920;2023-05-07T03:32:07;9.80;;;8.98;;
17369;SDS011;8802;52.402;4.920;2023-05-07T03:34:34;10.88;;;9.27;;
17369;SDS011;8802;52.402;4.920;2023-05-07T03:37:01;10.27;;;9.27;;
17369;SDS011;8802;52.402;4.920;2023-05-07T03:39:28;8.35;;;7.50;;
17369;SDS011;8802;52.402;4.920;2023-05-07T03:41:57;7.78;;;7.10;;
17369;SDS011;8802;52.402;4.920;2023-05-07T03:44:24;9.43;;;8.50;;
17369;SDS011;8802;52.402;4.920;2023-05-07T03:46:51;6.70;;;6.10;;
17369;SDS011;8802;52.402;4.920;2023-05-07T03:49:18;9.00;;;8.13;;
17369;SDS011;8802;52.402;4.920;2023-05-07T03:51:44;9.63;;;8.77;;
17369;SDS011;8802;52.402;4.920;2023-05-07T03:54:11;8.30;;;7.60;;
17369;SDS011;8802;52.402;4.920;2023-05-07T03:56:38;7.75;;;7.15;;
17369;SDS011;8802;52.402;4.920;2023-05-07T03:59:06;7.28;;;6.57;;
17369;SDS011;8802;52.402;4.920;2023-05-07T04:01:33;9.15;;;8.43;;
17369;SDS011;8802;52.402;4.920;2023-05-07T04:04:00;11.07;;;9.48;;
17369;SDS011;8802;52.402;4.920;2023-05-07T04:06:28;11.02;;;10.02;;
17369;SDS011;8802;52.402;4.920;2023-05-07T04:08:55;8.80;;;7.85;;
17369;SDS011;8802;52.402;4.920;2023-05-07T04:11:22;9.35;;;8.35;;
17369;SDS011;8802;52.402;4.920;2023-05-07T04:13:49;9.35;;;8.35;;
17369;SDS011;8802;52.402;4.920;2023-05-07T04:16:18;7.88;;;7.10;;
17369;SDS011;8802;52.402;4.920;2023-05-07T04:18:44;7.78;;;7.07;;
17369;SDS011;8802;52.402;4.920;2023-05-07T04:21:14;5.75;;;5.35;;
17369;SDS011;8802;52.402;4.920;2023-05-07T04:23:42;7.13;;;6.32;;
17369;SDS011;8802;52.402;4.920;2023-05-07T04:26:09;8.45;;;7.65;;
17369;SDS011;8802;52.402;4.920;2023-05-07T04:28:36;8.85;;;7.55;;
17369;SDS011;8802;52.402;4.920;2023-05-07T04:31:03;7.10;;;6.40;;
17369;SDS011;8802;52.402;4.920;2023-05-07T04:33:31;8.85;;;7.20;;
17369;SDS011;8802;52.402;4.920;2023-05-07T04:35:58;7.93;;;6.78;;
17369;SDS011;8802;52.402;4.920;2023-05-07T04:38:28;6.10;;;5.57;;
17369;SDS011;8802;52.402;4.920;2023-05-07T04:40:55;6.28;;;5.78;;
17369;SDS011;8802;52.402;4.920;2023-05-07T04:43:22;5.93;;;5.43;;
17369;SDS011;8802;52.402;4.920;2023-05-07T04:45:50;7.70;;;7.00;;
17369;SDS011;8802;52.402;4.920;2023-05-07T04:48:17;6.88;;;6.28;;
17369;SDS011;8802;52.402;4.920;2023-05-07T04:50:48;9.10;;;7.85;;
17369;SDS011;8802;52.402;4.920;2023-05-07T04:53:15;9.43;;;8.32;;
17369;SDS011;8802;52.402;4.920;2023-05-07T04:55:42;8.50;;;7.88;;
17369;SDS011;8802;52.402;4.920;2023-05-07T04:58:09;9.10;;;8.40;;
17369;SDS011;8802;52.402;4.920;2023-05-07T05:00:37;10.23;;;9.32;;
17369;SDS011;8802;52.402;4.920;2023-05-07T05:03:04;10.63;;;9.73;;
17369;SDS011;8802;52.402;4.920;2023-05-07T05:05:31;10.68;;;9.70;;
17369;SDS011;8802;52.402;4.920;2023-05-07T05:07:59;10.13;;;9.20;;
17369;SDS011;8802;52.402;4.920;2023-05-07T05:10:26;8.57;;;7.82;;
17369;SDS011;8802;52.402;4.920;2023-05-07T05:12:53;9.95;;;9.15;;
17369;SDS011;8802;52.402;4.920;2023-05-07T05:15:20;9.80;;;9.05;;
17369;SDS011;8802;52.402;4.920;2023-05-07T05:17:47;10.93;;;9.93;;
17369;SDS011;8802;52.402;4.920;2023-05-07T05:20:13;11.40;;;10.35;;
17369;SDS011;8802;52.402;4.920;2023-05-07T05:22:40;11.60;;;10.68;;
17369;SDS011;8802;52.402;4.920;2023-05-07T05:25:09;11.07;;;10.18;;
17369;SDS011;8802;52.402;4.920;2023-05-07T05:27:36;11.52;;;10.63;;
17369;SDS011;8802;52.402;4.920;2023-05-07T05:30:03;11.77;;;10.75;;
17369;SDS011;8802;52.402;4.920;2023-05-07T05:32:31;11.18;;;10.07;;
17369;SDS011;8802;52.402;4.920;2023-05-07T05:34:58;13.10;;;12.02;;
17369;SDS011;8802;52.402;4.920;2023-05-07T05:37:25;11.93;;;10.95;;
17369;SDS011;8802;52.402;4.920;2023-05-07T05:39:51;11.43;;;10.48;;
17369;SDS011;8802;52.402;4.920;2023-05-07T05:42:21;13.02;;;11.77;;
17369;SDS011;8802;52.402;4.920;2023-05-07T05:44:48;11.15;;;10.25;;
17369;SDS011;8802;52.402;4.920;2023-05-07T05:47:14;10.52;;;9.52;;
17369;SDS011;8802;52.402;4.920;2023-05-07T05:49:41;10.40;;;9.50;;
17369;SDS011;8802;52.402;4.920;2023-05-07T05:52:09;12.55;;;11.35;;
17369;SDS011;8802;52.402;4.920;2023-05-07T05:54:38;10.75;;;9.85;;
17369;SDS011;8802;52.402;4.920;2023-05-07T05:57:05;9.85;;;8.95;;
17369;SDS011;8802;52.402;4.920;2023-05-07T05:59:33;12.82;;;11.68;;
17369;SDS011;8802;52.402;4.920;2023-05-07T06:02:00;12.10;;;11.20;;
17369;SDS011;8802;52.402;4.920;2023-05-07T06:04:27;12.50;;;11.32;;
17369;SDS011;8802;52.402;4.920;2023-05-07T06:06:54;12.57;;;11.50;;
17369;SDS011;8802;52.402;4.920;2023-05-07T06:09:21;12.30;;;11.20;;
17369;SDS011;8802;52.402;4.920;2023-05-07T06:11:48;13.07;;;11.90;;
17369;SDS011;8802;52.402;4.920;2023-05-07T06:14:15;11.05;;;10.05;;
17369;SDS011;8802;52.402;4.920;2023-05-07T06:16:43;10.77;;;9.88;;
17369;SDS011;8802;52.402;4.920;2023-05-07T06:19:10;10.52;;;9.73;;
17369;SDS011;8802;52.402;4.920;2023-05-07T06:21:38;10.82;;;9.82;;
17369;SDS011;8802;52.402;4.920;2023-05-07T06:24:05;11.05;;;10.05;;
17369;SDS011;8802;52.402;4.920;2023-05-07T06:26:32;12.60;;;11.60;;
17369;SDS011;8802;52.402;4.920;2023-05-07T06:28:59;11.27;;;10.38;;
17369;SDS011;8802;52.402;4.920;2023-05-07T06:31:28;11.25;;;10.35;;
17369;SDS011;8802;52.402;4.920;2023-05-07T06:33:58;12.15;;;11.05;;
17369;SDS011;8802;52.402;4.920;2023-05-07T06:36:27;12.38;;;11.27;;
17369;SDS011;8802;52.402;4.920;2023-05-07T06:38:53;13.13;;;11.98;;
17369;SDS011;8802;52.402;4.920;2023-05-07T06:41:20;10.07;;;9.27;;
17369;SDS011;8802;52.402;4.920;2023-05-07T06:43:47;11.75;;;10.82;;
17369;SDS011;8802;52.402;4.920;2023-05-07T06:46:15;13.30;;;12.18;;
17369;SDS011;8802;52.402;4.920;2023-05-07T06:48:42;12.82;;;11.60;;
17369;SDS011;8802;52.402;4.920;2023-05-07T06:51:10;13.45;;;12.25;;
17369;SDS011;8802;52.402;4.920;2023-05-07T06:53:37;12.75;;;11.65;;
17369;SDS011;8802;52.402;4.920;2023-05-07T06:56:04;12.70;;;11.63;;
17369;SDS011;8802;52.402;4.920;2023-05-07T06:58:31;14.70;;;13.38;;
17369;SDS011;8802;52.402;4.920;2023-05-07T07:00:58;14.20;;;12.90;;
17369;SDS011;8802;52.402;4.920;2023-05-07T07:03:25;12.05;;;11.05;;
17369;SDS011;8802;52.402;4.920;2023-05-07T07:05:52;11.70;;;10.60;;
17369;SDS011;8802;52.402;4.920;2023-05-07T07:08:21;13.07;;;11.93;;
17369;SDS011;8802;52.402;4.920;2023-05-07T07:10:48;14.82;;;13.40;;
17369;SDS011;8802;52.402;4.920;2023-05-07T07:13:15;14.30;;;13.00;;
17369;SDS011;8802;52.402;4.920;2023-05-07T07:15:42;13.27;;;12.18;;
17369;SDS011;8802;52.402;4.920;2023-05-07T07:18:10;14.10;;;12.95;;
17369;SDS011;8802;52.402;4.920;2023-05-07T07:20:36;12.95;;;11.90;;
17369;SDS011;8802;52.402;4.920;2023-05-07T07:23:03;12.63;;;11.55;;
17369;SDS011;8802;52.402;4.920;2023-05-07T07:25:32;12.88;;;11.77;;
17369;SDS011;8802;52.402;4.920;2023-05-07T07:27:58;12.45;;;11.48;;
17369;SDS011;8802;52.402;4.920;2023-05-07T07:30:25;13.82;;;12.73;;
17369;SDS011;8802;52.402;4.920;2023-05-07T07:32:52;12.20;;;11.30;;
17369;SDS011;8802;52.402;4.920;2023-05-07T07:35:20;14.75;;;13.45;;
17369;SDS011;8802;52.402;4.920;2023-05-07T07:37:47;12.88;;;11.82;;
17369;SDS011;8802;52.402;4.920;2023-05-07T07:40:15;13.32;;;12.25;;
17369;SDS011;8802;52.402;4.920;2023-05-07T07:42:44;13.50;;;12.40;;
17369;SDS011;8802;52.402;4.920;2023-05-07T07:45:10;14.50;;;13.30;;
17369;SDS011;8802;52.402;4.920;2023-05-07T07:47:37;14.27;;;12.98;;
17369;SDS011;8802;52.402;4.920;2023-05-07T07:50:05;15.13;;;13.90;;
17369;SDS011;8802;52.402;4.920;2023-05-07T07:52:33;14.90;;;13.68;;
17369;SDS011;8802;52.402;4.920;2023-05-07T07:55:00;13.88;;;12.68;;
17369;SDS011;8802;52.402;4.920;2023-05-07T07:57:27;14.18;;;13.07;;
17369;SDS011;8802;52.402;4.920;2023-05-07T07:59:55;16.02;;;14.73;;
17369;SDS011;8802;52.402;4.920;2023-05-07T08:02:22;15.23;;;13.90;;
17369;SDS011;8802;52.402;4.920;2023-05-07T08:04:49;14.25;;;13.15;;
17369;SDS011;8802;52.402;4.920;2023-05-07T08:07:16;14.48;;;13.35;;
17369;SDS011;8802;52.402;4.920;2023-05-07T08:09:45;15.73;;;14.52;;
17369;SDS011;8802;52.402;4.920;2023-05-07T08:12:12;15.27;;;14.10;;
17369;SDS011;8802;52.402;4.920;2023-05-07T08:14:39;14.57;;;13.43;;
17369;SDS011;8802;52.402;4.920;2023-05-07T08:17:07;13.65;;;12.52;;
17369;SDS011;8802;52.402;4.920;2023-05-07T08:19:35;13.90;;;12.80;;
17369;SDS011;8802;52.402;4.920;2023-05-07T08:22:02;12.95;;;11.98;;
17369;SDS011;8802;52.402;4.920;2023-05-07T08:24:29;13.43;;;12.20;;
17369;SDS011;8802;52.402;4.920;2023-05-07T08:26:56;14.23;;;13.02;;
17369;SDS011;8802;52.402;4.920;2023-05-07T08:29:23;13.52;;;12.38;;
17369;SDS011;8802;52.402;4.920;2023-05-07T08:31:50;12.50;;;11.50;;
17369;SDS011;8802;52.402;4.920;2023-05-07T08:34:18;14.80;;;13.52;;
17369;SDS011;8802;52.402;4.920;2023-05-07T08:36:45;13.07;;;12.13;;
17369;SDS011;8802;52.402;4.920;2023-05-07T08:39:13;14.25;;;13.15;;
17369;SDS011;8802;52.402;4.920;2023-05-07T08:41:42;15.65;;;14.40;;
17369;SDS011;8802;52.402;4.920;2023-05-07T08:44:12;14.77;;;13.65;;
17369;SDS011;8802;52.402;4.920;2023-05-07T08:46:39;12.05;;;10.95;;
17369;SDS011;8802;52.402;4.920;2023-05-07T08:49:08;15.18;;;13.98;;
17369;SDS011;8802;52.402;4.920;2023-05-07T08:51:37;13.93;;;12.82;;
17369;SDS011;8802;52.402;4.920;2023-05-07T08:54:04;13.25;;;12.25;;
17369;SDS011;8802;52.402;4.920;2023-05-07T08:56:32;13.15;;;12.15;;
17369;SDS011;8802;52.402;4.920;2023-05-07T08:58:59;15.93;;;14.63;;
17369;SDS011;8802;52.402;4.920;2023-05-07T09:01:26;13.70;;;12.50;;
17369;SDS011;8802;52.402;4.920;2023-05-07T09:03:53;14.45;;;13.18;;
17369;SDS011;8802;52.402;4.920;2023-05-07T09:06:20;12.85;;;11.80;;
17369;SDS011;8802;52.402;4.920;2023-05-07T09:08:52;11.23;;;10.32;;
17369;SDS011;8802;52.402;4.920;2023-05-07T09:11:20;11.95;;;10.85;;
17369;SDS011;8802;52.402;4.920;2023-05-07T09:13:48;11.60;;;10.70;;
17369;SDS011;8802;52.402;4.920;2023-05-07T09:16:19;12.38;;;11.38;;
17369;SDS011;8802;52.402;4.920;2023-05-07T09:18:48;12.77;;;11.77;;
17369;SDS011;8802;52.402;4.920;2023-05-07T09:21:17;14.93;;;13.57;;
17369;SDS011;8802;52.402;4.920;2023-05-07T09:23:44;11.10;;;10.20;;
17369;SDS011;8802;52.402;4.920;2023-05-07T09:26:13;11.93;;;11.02;;
17369;SDS011;8802;52.402;4.920;2023-05-07T09:28:40;12.82;;;11.82;;
17369;SDS011;8802;52.402;4.920;2023-05-07T09:31:08;9.48;;;8.77;;
17369;SDS011;8802;52.402;4.920;2023-05-07T09:33:35;12.90;;;12.00;;
17369;SDS011;8802;52.402;4.920;2023-05-07T09:36:03;11.75;;;10.85;;
17369;SDS011;8802;52.402;4.920;2023-05-07T09:38:30;11.38;;;10.48;;
17369;SDS011;8802;52.402;4.920;2023-05-07T09:41:04;11.27;;;10.30;;
17369;SDS011;8802;52.402;4.920;2023-05-07T09:43:33;11.90;;;10.93;;
17369;SDS011;8802;52.402;4.920;2023-05-07T09:48:35;9.90;;;9.05;;
17369;SDS011;8802;52.402;4.920;2023-05-07T09:51:06;11.70;;;10.75;;
17369;SDS011;8802;52.402;4.920;2023-05-07T09:53:39;12.20;;;11.10;;
17369;SDS011;8802;52.402;4.920;2023-05-07T09:56:07;11.45;;;10.60;;
17369;SDS011;8802;52.402;4.920;2023-05-07T09:58:35;12.00;;;11.10;;
17369;SDS011;8802;52.402;4.920;2023-05-07T10:01:04;11.82;;;10.93;;
17369;SDS011;8802;52.402;4.920;2023-05-07T10:03:31;13.30;;;12.20;;
17369;SDS011;8802;52.402;4.920;2023-05-07T10:06:01;11.68;;;10.85;;
17369;SDS011;8802;52.402;4.920;2023-05-07T10:08:29;11.18;;;10.38;;
17369;SDS011;8802;52.402;4.920;2023-05-07T10:10:57;11.80;;;10.70;;
17369;SDS011;8802;52.402;4.920;2023-05-07T10:13:24;13.13;;;12.13;;
17369;SDS011;8802;52.402;4.920;2023-05-07T10:15:52;11.63;;;10.73;;
17369;SDS011;8802;52.402;4.920;2023-05-07T10:18:21;12.35;;;11.30;;
17369;SDS011;8802;52.402;4.920;2023-05-07T10:20:54;13.00;;;11.90;;
17369;SDS011;8802;52.402;4.920;2023-05-07T10:23:28;15.45;;;14.13;;
17369;SDS011;8802;52.402;4.920;2023-05-07T10:25:57;13.20;;;12.20;;
17369;SDS011;8802;52.402;4.920;2023-05-07T10:28:25;14.70;;;13.35;;
17369;SDS011;8802;52.402;4.920;2023-05-07T10:30:58;12.98;;;11.98;;
17369;SDS011;8802;52.402;4.920;2023-05-07T10:33:34;14.93;;;13.73;;
17369;SDS011;8802;52.402;4.920;2023-05-07T10:36:02;15.05;;;13.85;;
17369;SDS011;8802;52.402;4.920;2023-05-07T10:38:30;13.80;;;12.70;;
17369;SDS011;8802;52.402;4.920;2023-05-07T10:40:57;13.55;;;12.55;;
17369;SDS011;8802;52.402;4.920;2023-05-07T10:43:24;15.90;;;14.63;;
17369;SDS011;8802;52.402;4.920;2023-05-07T10:46:11;13.00;;;12.10;;
17369;SDS011;8802;52.402;4.920;2023-05-07T10:51:36;15.55;;;14.40;;
17369;SDS011;8802;52.402;4.920;2023-05-07T10:54:21;15.50;;;14.30;;
17369;SDS011;8802;52.402;4.920;2023-05-07T10:56:49;15.43;;;14.32;;
17369;SDS011;8802;52.402;4.920;2023-05-07T10:59:29;16.23;;;15.07;;
17369;SDS011;8802;52.402;4.920;2023-05-07T11:02:07;15.82;;;14.63;;
17369;SDS011;8802;52.402;4.920;2023-05-07T11:04:36;14.45;;;13.38;;
17369;SDS011;8802;52.402;4.920;2023-05-07T11:09:57;16.15;;;14.95;;
17369;SDS011;8802;52.402;4.920;2023-05-07T11:18:06;14.25;;;12.98;;
17369;SDS011;8802;52.402;4.920;2023-05-07T11:20:52;15.27;;;14.10;;
17369;SDS011;8802;52.402;4.920;2023-05-07T11:26:41;13.18;;;12.07;;
17369;SDS011;8802;52.402;4.920;2023-05-07T11:29:10;13.10;;;12.15;;
17369;SDS011;8802;52.402;4.920;2023-05-07T11:31:38;11.55;;;10.60;;
17369;SDS011;8802;52.402;4.920;2023-05-07T11:34:06;12.82;;;11.73;;
17369;SDS011;8802;52.402;4.920;2023-05-07T11:36:34;12.47;;;11.57;;
17369;SDS011;8802;52.402;4.920;2023-05-07T11:39:22;13.80;;;12.70;;
17369;SDS011;8802;52.402;4.920;2023-05-07T11:41:53;13.05;;;12.07;;
17369;SDS011;8802;52.402;4.920;2023-05-07T11:44:20;13.07;;;11.88;;
17369;SDS011;8802;52.402;4.920;2023-05-07T11:46:46;12.85;;;11.88;;
17369;SDS011;8802;52.402;4.920;2023-05-07T11:49:15;12.50;;;11.50;;
17369;SDS011;8802;52.402;4.920;2023-05-07T11:51:43;13.52;;;12.43;;
17369;SDS011;8802;52.402;4.920;2023-05-07T11:54:11;13.73;;;12.52;;
17369;SDS011;8802;52.402;4.920;2023-05-07T11:56:42;15.18;;;13.90;;
17369;SDS011;8802;52.402;4.920;2023-05-07T11:59:11;14.50;;;13.30;;
17369;SDS011;8802;52.402;4.920;2023-05-07T12:01:37;13.18;;;12.07;;
17369;SDS011;8802;52.402;4.920;2023-05-07T12:04:04;12.20;;;11.23;;
17369;SDS011;8802;52.402;4.920;2023-05-07T12:06:35;13.82;;;12.55;;
17369;SDS011;8802;52.402;4.920;2023-05-07T12:09:03;10.98;;;10.18;;
17369;SDS011;8802;52.402;4.920;2023-05-07T12:11:32;10.77;;;9.68;;
17369;SDS011;8802;52.402;4.920;2023-05-07T12:13:59;11.48;;;10.57;;
17369;SDS011;8802;52.402;4.920;2023-05-07T12:16:26;11.05;;;10.25;;
17369;SDS011;8802;52.402;4.920;2023-05-07T12:18:54;11.55;;;10.55;;
17369;SDS011;8802;52.402;4.920;2023-05-07T12:21:23;10.73;;;9.85;;
17369;SDS011;8802;52.402;4.920;2023-05-07T12:23:52;10.10;;;9.30;;
17369;SDS011;8802;52.402;4.920;2023-05-07T12:26:19;10.95;;;9.98;;
17369;SDS011;8802;52.402;4.920;2023-05-07T12:28:46;10.95;;;9.95;;
17369;SDS011;8802;52.402;4.920;2023-05-07T12:31:13;10.02;;;9.13;;
17369;SDS011;8802;52.402;4.920;2023-05-07T12:33:41;8.57;;;7.80;;
17369;SDS011;8802;52.402;4.920;2023-05-07T12:36:08;8.52;;;7.82;;
17369;SDS011;8802;52.402;4.920;2023-05-07T12:38:38;7.78;;;7.07;;
17369;SDS011;8802;52.402;4.920;2023-05-07T12:41:07;7.97;;;7.10;;
17369;SDS011;8802;52.402;4.920;2023-05-07T12:43:35;10.60;;;8.23;;
17369;SDS011;8802;52.402;4.920;2023-05-07T12:46:03;8.75;;;8.05;;
17369;SDS011;8802;52.402;4.920;2023-05-07T12:48:31;7.85;;;7.15;;
17369;SDS011;8802;52.402;4.920;2023-05-07T12:50:59;8.88;;;7.97;;
17369;SDS011;8802;52.402;4.920;2023-05-07T12:53:27;9.50;;;8.70;;
17369;SDS011;8802;52.402;4.920;2023-05-07T12:55:56;9.07;;;8.27;;
17369;SDS011;8802;52.402;4.920;2023-05-07T12:58:26;8.10;;;7.45;;
17369;SDS011;8802;52.402;4.920;2023-05-07T13:00:54;10.00;;;9.10;;
17369;SDS011;8802;52.402;4.920;2023-05-07T13:03:24;10.43;;;9.48;;
17369;SDS011;8802;52.402;4.920;2023-05-07T13:05:52;10.65;;;9.75;;
17369;SDS011;8802;52.402;4.920;2023-05-07T13:08:24;10.63;;;9.65;;
17369;SDS011;8802;52.402;4.920;2023-05-07T13:10:52;8.27;;;7.40;;
17369;SDS011;8802;52.402;4.920;2023-05-07T13:13:19;8.35;;;7.50;;
17369;SDS011;8802;52.402;4.920;2023-05-07T13:15:47;10.70;;;9.82;;
17369;SDS011;8802;52.402;4.920;2023-05-07T13:18:14;12.43;;;11.30;;
17369;SDS011;8802;52.402;4.920;2023-05-07T13:20:41;13.18;;;12.00;;
17369;SDS011;8802;52.402;4.920;2023-05-07T13:23:08;12.00;;;10.85;;
17369;SDS011;8802;52.402;4.920;2023-05-07T13:25:35;11.23;;;10.25;;
17369;SDS011;8802;52.402;4.920;2023-05-07T13:28:02;13.10;;;11.98;;
17369;SDS011;8802;52.402;4.920;2023-05-07T13:30:29;14.65;;;13.30;;
17369;SDS011;8802;52.402;4.920;2023-05-07T13:32:57;13.07;;;11.98;;
17369;SDS011;8802;52.402;4.920;2023-05-07T13:35:24;11.85;;;10.80;;
17369;SDS011;8802;52.402;4.920;2023-05-07T13:37:51;11.88;;;10.63;;
17369;SDS011;8802;52.402;4.920;2023-05-07T13:40:19;10.82;;;9.73;;
17369;SDS011;8802;52.402;4.920;2023-05-07T13:42:46;11.27;;;10.35;;
17369;SDS011;8802;52.402;4.920;2023-05-07T13:45:13;10.10;;;8.50;;
17369;SDS011;8802;52.402;4.920;2023-05-07T13:47:40;9.20;;;8.40;;
17369;SDS011;8802;52.402;4.920;2023-05-07T13:50:09;10.23;;;9.32;;
17369;SDS011;8802;52.402;4.920;2023-05-07T13:52:38;8.85;;;8.15;;
17369;SDS011;8802;52.402;4.920;2023-05-07T13:55:08;10.50;;;9.70;;
17369;SDS011;8802;52.402;4.920;2023-05-07T13:57:35;11.93;;;10.93;;
17369;SDS011;8802;52.402;4.920;2023-05-07T14:00:02;13.00;;;10.88;;
17369;SDS011;8802;52.402;4.920;2023-05-07T14:02:30;11.57;;;10.38;;
17369;SDS011;8802;52.402;4.920;2023-05-07T14:04:57;13.52;;;9.80;;
17369;SDS011;8802;52.402;4.920;2023-05-07T14:07:25;10.48;;;4.97;;
17369;SDS011;8802;52.402;4.920;2023-05-07T14:09:52;7.10;;;3.20;;
17369;SDS011;8802;52.402;4.920;2023-05-07T14:12:18;6.55;;;2.70;;
17369;SDS011;8802;52.402;4.920;2023-05-07T14:14:45;4.57;;;3.40;;
17369;SDS011;8802;52.402;4.920;2023-05-07T14:17:14;4.50;;;2.60;;
17369;SDS011;8802;52.402;4.920;2023-05-07T14:19:42;3.97;;;2.50;;
17369;SDS011;8802;52.402;4.920;2023-05-07T14:22:08;4.30;;;2.58;;
17369;SDS011;8802;52.402;4.920;2023-05-07T14:24:37;6.65;;;4.60;;
17369;SDS011;8802;52.402;4.920;2023-05-07T14:27:04;8.20;;;5.78;;
17369;SDS011;8802;52.402;4.920;2023-05-07T14:29:31;8.57;;;4.90;;
17369;SDS011;8802;52.402;4.920;2023-05-07T14:32:00;9.68;;;6.72;;
17369;SDS011;8802;52.402;4.920;2023-05-07T14:34:28;6.70;;;5.88;;
17369;SDS011;8802;52.402;4.920;2023-05-07T14:36:55;5.78;;;4.43;;
17369;SDS011;8802;52.402;4.920;2023-05-07T14:39:21;5.15;;;4.57;;
17369;SDS011;8802;52.402;4.920;2023-05-07T14:41:50;5.88;;;5.22;;
17369;SDS011;8802;52.402;4.920;2023-05-07T14:44:16;6.80;;;6.20;;
17369;SDS011;8802;52.402;4.920;2023-05-07T14:46:43;7.03;;;5.78;;
17369;SDS011;8802;52.402;4.920;2023-05-07T14:49:10;8.88;;;6.80;;
17369;SDS011;8802;52.402;4.920;2023-05-07T14:51:42;6.40;;;5.55;;
17369;SDS011;8802;52.402;4.920;2023-05-07T14:54:09;6.10;;;5.50;;
17369;SDS011;8802;52.402;4.920;2023-05-07T14:56:36;5.55;;;4.93;;
17369;SDS011;8802;52.402;4.920;2023-05-07T14:59:05;7.05;;;4.97;;
17369;SDS011;8802;52.402;4.920;2023-05-07T15:01:32;5.90;;;5.30;;